Time;durP1;ratioP1;P1;durP2;ratioP2;P2;SDS_P1;SDS_P2;PMS_P1;PMS_P2;Temp;Humidity;BMP_temperature;BMP_pressure;BME280_temperature;BME280_humidity;BME280_pressure;Samples;Min_cycle;Max_cycle;Signal;HPM_P1;HPM_P2
2022/05/31 00:00:32;;;;;;;2.72;1.55;;;20.10;97.30;;;;;;4208504;28;20218;-77
2022/05/31 00:02:35;;;;;;;1.92;1.48;;;20.10;97.30;;;;;;4208730;28;20283;-77
2022/05/31 00:04:38;;;;;;;2.25;1.55;;;20.10;97.50;;;;;;4210292;28;20226;-77
2022/05/31 00:06:40;;;;;;;1.70;1.52;;;20.10;97.40;;;;;;4208830;28;20266;-77
2022/05/31 00:08:42;;;;;;;1.88;1.25;;;20.10;97.10;;;;;;4210963;28;20297;-77
2022/05/31 00:10:46;;;;;;;2.17;1.80;;;20.10;97.10;;;;;;4210082;28;20275;-77
2022/05/31 00:12:49;;;;;;;2.28;1.42;;;20.10;97.40;;;;;;4209069;28;20211;-77
2022/05/31 00:14:51;;;;;;;2.17;1.52;;;20.10;97.30;;;;;;4210471;28;20214;-77
2022/05/31 00:16:53;;;;;;;2.75;1.52;;;20.10;97.30;;;;;;4209620;28;20274;-77
2022/05/31 00:18:55;;;;;;;1.98;1.40;;;20.10;97.00;;;;;;4209969;28;20219;-77
2022/05/31 00:20:58;;;;;;;2.80;1.75;;;20.10;97.30;;;;;;4209758;28;20214;-77
2022/05/31 00:23:00;;;;;;;2.08;1.25;;;20.10;97.20;;;;;;4209149;28;20638;-77
2022/05/31 00:25:03;;;;;;;3.78;1.88;;;20.00;97.30;;;;;;4209487;28;20601;-77
2022/05/31 00:27:08;;;;;;;2.97;1.90;;;20.10;97.10;;;;;;4205298;28;20215;-77
2022/05/31 00:29:12;;;;;;;3.05;1.58;;;20.10;97.00;;;;;;4209841;28;20255;-77
2022/05/31 00:31:14;;;;;;;2.67;1.67;;;20.10;97.00;;;;;;4210371;28;20259;-77
2022/05/31 00:33:17;;;;;;;1.92;1.40;;;20.00;97.40;;;;;;4210264;28;20251;-77
2022/05/31 00:35:22;;;;;;;3.10;1.73;;;20.00;97.00;;;;;;4208794;28;20251;-77
2022/05/31 00:37:25;;;;;;;2.92;1.75;;;20.00;97.10;;;;;;4209319;28;20214;-77
2022/05/31 00:39:27;;;;;;;2.58;1.60;;;20.00;97.00;;;;;;4208671;28;20267;-77
2022/05/31 00:41:31;;;;;;;3.05;1.80;;;20.00;97.00;;;;;;4209072;28;20747;-77
2022/05/31 00:43:34;;;;;;;3.35;2.13;;;20.00;97.00;;;;;;4210147;28;20299;-77
2022/05/31 00:45:40;;;;;;;2.58;1.40;;;20.00;97.00;;;;;;4208422;28;20222;-77
2022/05/31 00:47:43;;;;;;;2.38;1.50;;;20.00;97.00;;;;;;4207211;28;20214;-77
2022/05/31 00:49:54;;;;;;;2.42;1.70;;;20.00;96.90;;;;;;4209410;28;20211;-77
2022/05/31 00:52:00;;;;;;;4.13;1.67;;;20.00;97.00;;;;;;4207561;28;20263;-77
2022/05/31 00:54:07;;;;;;;2.30;1.67;;;20.00;97.30;;;;;;4209909;28;20214;-77
2022/05/31 00:56:14;;;;;;;1.98;1.50;;;20.00;97.10;;;;;;4209102;28;20218;-77
2022/05/31 00:58:20;;;;;;;2.08;1.70;;;20.00;97.00;;;;;;4208747;28;20275;-77
2022/05/31 01:00:24;;;;;;;2.95;1.50;;;20.00;97.10;;;;;;4209777;28;20210;-77
2022/05/31 01:02:27;;;;;;;2.88;1.45;;;20.00;97.10;;;;;;4208671;28;20826;-77
2022/05/31 01:04:34;;;;;;;2.53;1.48;;;20.00;96.90;;;;;;4209353;28;20242;-77
2022/05/31 01:06:36;;;;;;;2.55;1.60;;;20.00;97.00;;;;;;4209131;28;20643;-77
2022/05/31 01:08:42;;;;;;;1.75;1.58;;;20.00;97.20;;;;;;4207588;28;20222;-77
2022/05/31 01:10:45;;;;;;;2.72;1.60;;;19.90;97.30;;;;;;4210231;28;20315;-77
2022/05/31 01:12:49;;;;;;;2.92;1.98;;;20.00;97.00;;;;;;4209984;28;20214;-77
2022/05/31 01:14:52;;;;;;;2.60;1.80;;;20.00;97.00;;;;;;4209098;28;20215;-77
2022/05/31 01:16:58;;;;;;;2.30;1.67;;;20.00;97.00;;;;;;4209662;28;20256;-77
2022/05/31 01:19:00;;;;;;;3.35;1.58;;;19.90;97.20;;;;;;4208101;28;20264;-77
2022/05/31 01:21:04;;;;;;;2.97;1.77;;;20.00;97.20;;;;;;4209875;28;20264;-77
2022/05/31 01:23:12;;;;;;;3.25;1.50;;;19.90;97.10;;;;;;4210004;28;20223;-76
2022/05/31 01:25:33;;;;;;;2.22;1.77;;;19.90;97.00;;;;;;4207518;28;20226;-77
2022/05/31 01:27:46;;;;;;;3.30;1.58;;;20.00;97.30;;;;;;4208557;28;20625;-76
2022/05/31 01:29:49;;;;;;;2.38;1.60;;;19.90;97.00;;;;;;4209453;28;20214;-77
2022/05/31 01:31:56;;;;;;;4.65;1.63;;;19.90;97.20;;;;;;4208798;28;20219;-77
2022/05/31 01:34:04;;;;;;;2.17;1.58;;;19.90;97.70;;;;;;4209312;28;20222;-77
2022/05/31 01:36:12;;;;;;;3.08;1.70;;;19.90;97.20;;;;;;4209923;28;20218;-77
2022/05/31 01:38:18;;;;;;;2.58;1.70;;;19.90;97.20;;;;;;4209581;28;20642;-76
2022/05/31 01:40:28;;;;;;;2.97;1.77;;;19.90;97.30;;;;;;4209195;28;20260;-77
2022/05/31 01:42:34;;;;;;;2.65;1.70;;;19.90;97.30;;;;;;4207626;28;20335;-77
2022/05/31 01:44:41;;;;;;;2.65;1.90;;;19.90;97.30;;;;;;4210153;28;20624;-77
2022/05/31 01:46:46;;;;;;;2.92;1.88;;;19.90;97.50;;;;;;4208045;28;20207;-77
2022/05/31 01:48:49;;;;;;;3.35;1.92;;;19.90;97.10;;;;;;4208856;28;20663;-77
2022/05/31 01:50:51;;;;;;;2.08;1.52;;;19.90;97.30;;;;;;4209626;28;20214;-77
2022/05/31 01:52:57;;;;;;;3.22;1.65;;;19.90;97.00;;;;;;4212537;28;20207;-77
2022/05/31 01:54:59;;;;;;;2.40;1.65;;;19.90;97.40;;;;;;4211609;28;20674;-77
2022/05/31 01:57:04;;;;;;;2.78;1.70;;;19.90;97.40;;;;;;4212645;28;20263;-77
2022/05/31 01:59:08;;;;;;;2.55;1.70;;;19.90;97.00;;;;;;4211502;28;20287;-77
2022/05/31 02:01:10;;;;;;;3.33;1.58;;;19.90;97.00;;;;;;4212138;28;20658;-77
2022/05/31 02:03:16;;;;;;;2.78;1.40;;;19.90;97.00;;;;;;4212390;28;20218;-76
2022/05/31 02:05:19;;;;;;;2.33;1.73;;;19.90;97.10;;;;;;4210042;28;20219;-77
2022/05/31 02:07:24;;;;;;;3.42;1.77;;;19.90;97.30;;;;;;4212511;28;20234;-77
2022/05/31 02:09:28;;;;;;;2.85;1.88;;;19.90;97.10;;;;;;4212662;28;20259;-76
2022/05/31 02:11:30;;;;;;;3.92;1.80;;;19.90;97.10;;;;;;4212342;28;20245;-77
2022/05/31 02:13:34;;;;;;;3.00;1.60;;;19.90;97.40;;;;;;4212994;28;20214;-77
2022/05/31 02:15:36;;;;;;;2.92;1.90;;;19.90;97.20;;;;;;4212116;28;20354;-77
2022/05/31 02:17:38;;;;;;;2.70;2.08;;;19.90;97.20;;;;;;4211600;28;20275;-77
2022/05/31 02:19:41;;;;;;;2.95;1.60;;;19.90;97.10;;;;;;4210956;28;20214;-77
2022/05/31 02:21:43;;;;;;;2.85;1.92;;;19.90;97.00;;;;;;4211952;28;20330;-77
2022/05/31 02:23:45;;;;;;;1.80;1.50;;;19.90;97.00;;;;;;4212434;28;20276;-77
2022/05/31 02:25:49;;;;;;;2.83;1.90;;;19.90;97.20;;;;;;4212000;28;20223;-77
2022/05/31 02:27:51;;;;;;;2.53;1.90;;;19.90;97.10;;;;;;4212001;28;20317;-77
2022/05/31 02:29:53;;;;;;;2.33;1.70;;;19.90;97.00;;;;;;4211917;28;20275;-77
2022/05/31 02:31:58;;;;;;;4.25;2.13;;;19.80;97.40;;;;;;4212413;28;20724;-77
2022/05/31 02:34:00;;;;;;;3.22;1.83;;;19.90;97.30;;;;;;4209990;28;21135;-77
2022/05/31 02:36:03;;;;;;;3.08;1.88;;;19.80;97.00;;;;;;4212066;28;20211;-77
2022/05/31 02:38:05;;;;;;;2.55;1.95;;;19.80;97.00;;;;;;4212354;28;20259;-77
2022/05/31 02:40:09;;;;;;;4.40;2.05;;;19.80;97.20;;;;;;4209984;28;20222;-77
2022/05/31 02:42:14;;;;;;;1.95;1.77;;;19.80;97.30;;;;;;4210950;28;20677;-76
2022/05/31 02:44:16;;;;;;;2.47;2.00;;;19.90;97.10;;;;;;4211657;28;20242;-77
2022/05/31 02:46:18;;;;;;;2.67;1.90;;;19.90;97.20;;;;;;4211695;28;20218;-76
2022/05/31 02:48:22;;;;;;;3.60;2.13;;;19.90;97.00;;;;;;4212116;28;20269;-77
2022/05/31 02:50:25;;;;;;;2.95;2.08;;;19.80;97.10;;;;;;4210908;28;20268;-77
2022/05/31 02:52:27;;;;;;;2.97;2.00;;;19.80;97.10;;;;;;4211794;28;20708;-77
2022/05/31 02:54:29;;;;;;;3.35;1.92;;;19.90;97.20;;;;;;4211476;28;20280;-77
2022/05/31 02:56:32;;;;;;;3.33;2.10;;;19.90;97.30;;;;;;4209748;28;20600;-77
2022/05/31 02:58:36;;;;;;;2.78;1.98;;;19.90;97.10;;;;;;4211413;28;20667;-76
2022/05/31 03:00:38;;;;;;;2.60;2.00;;;19.80;97.10;;;;;;4211646;28;20664;-77
2022/05/31 03:02:41;;;;;;;2.33;1.73;;;19.80;97.10;;;;;;4210755;28;20218;-77
2022/05/31 03:04:43;;;;;;;3.13;2.03;;;19.90;97.10;;;;;;4210735;28;20242;-77
2022/05/31 03:06:46;;;;;;;2.30;1.90;;;19.80;97.00;;;;;;4208293;28;20235;-77
2022/05/31 03:08:49;;;;;;;2.58;1.85;;;19.80;97.10;;;;;;4211039;28;20268;-77
2022/05/31 03:10:54;;;;;;;2.17;1.52;;;19.80;97.10;;;;;;4211239;28;20214;-77
2022/05/31 03:12:56;;;;;;;2.83;2.10;;;19.80;97.10;;;;;;4210139;28;20795;-77
2022/05/31 03:15:05;;;;;;;2.55;2.00;;;19.80;97.10;;;;;;4211212;28;20214;-77
2022/05/31 03:17:11;;;;;;;4.07;2.40;;;19.80;97.40;;;;;;4210258;28;20214;-76
2022/05/31 03:19:17;;;;;;;2.53;1.90;;;19.80;97.10;;;;;;4210003;28;20218;-77
2022/05/31 03:21:24;;;;;;;3.22;2.17;;;19.80;97.10;;;;;;4210819;28;20222;-77
2022/05/31 03:23:31;;;;;;;3.53;2.10;;;19.80;97.50;;;;;;4210672;28;20214;-77
2022/05/31 03:25:33;;;;;;;2.67;1.83;;;19.80;97.10;;;;;;4210086;28;20303;-77
2022/05/31 03:27:36;;;;;;;2.20;2.00;;;19.80;97.10;;;;;;4210312;28;20210;-76
2022/05/31 03:29:42;;;;;;;2.08;1.80;;;19.80;97.10;;;;;;4208892;28;20891;-77
2022/05/31 03:31:46;;;;;;;2.72;2.08;;;19.80;97.20;;;;;;4209202;28;20218;-77
2022/05/31 03:33:48;;;;;;;2.60;2.28;;;19.80;97.20;;;;;;4210359;28;20625;-76
2022/05/31 03:35:51;;;;;;;3.65;2.28;;;19.80;97.20;;;;;;4209156;28;20222;-77
2022/05/31 03:37:53;;;;;;;3.35;1.95;;;19.80;97.10;;;;;;4210733;28;20206;-76
2022/05/31 03:39:56;;;;;;;2.90;2.10;;;19.80;97.30;;;;;;4210697;28;20279;-76
2022/05/31 03:41:58;;;;;;;2.25;1.77;;;19.80;97.10;;;;;;4207881;28;20275;-76
2022/05/31 03:44:01;;;;;;;3.88;2.30;;;19.80;97.10;;;;;;4210820;28;20221;-77
2022/05/31 03:46:03;;;;;;;3.33;2.15;;;19.80;97.10;;;;;;4210857;28;20238;-76
2022/05/31 03:48:09;;;;;;;3.35;1.88;;;19.80;97.10;;;;;;4208711;28;20210;-77
2022/05/31 03:50:11;;;;;;;3.30;2.03;;;19.80;97.10;;;;;;4210212;28;20682;-77
2022/05/31 03:52:13;;;;;;;3.08;2.40;;;19.80;97.20;;;;;;4210397;28;20214;-77
2022/05/31 03:54:16;;;;;;;2.75;1.90;;;19.80;97.30;;;;;;4207401;28;20215;-77
2022/05/31 03:56:18;;;;;;;3.28;1.80;;;19.80;97.10;;;;;;4209110;28;20303;-77
2022/05/31 03:58:21;;;;;;;2.83;1.98;;;19.80;97.10;;;;;;4207098;28;20965;-77
2022/05/31 04:00:24;;;;;;;3.05;2.25;;;19.80;97.20;;;;;;4210192;28;20267;-77
2022/05/31 04:02:26;;;;;;;3.70;2.22;;;19.80;97.30;;;;;;4209455;28;20259;-77
2022/05/31 04:04:30;;;;;;;3.40;2.20;;;19.80;97.40;;;;;;4208917;28;20214;-77
2022/05/31 04:06:35;;;;;;;2.90;2.33;;;19.80;97.50;;;;;;4207423;28;20260;-77
2022/05/31 04:08:37;;;;;;;2.28;1.92;;;19.80;97.20;;;;;;4209984;28;20214;-77
2022/05/31 04:10:41;;;;;;;2.80;1.90;;;19.80;97.20;;;;;;4210439;28;20214;-77
2022/05/31 04:12:43;;;;;;;3.20;2.00;;;19.80;97.30;;;;;;4209873;28;20267;-77
2022/05/31 04:14:45;;;;;;;2.53;2.15;;;19.80;97.40;;;;;;4209602;28;20222;-77
2022/05/31 04:16:48;;;;;;;2.38;2.00;;;19.80;97.20;;;;;;4209688;28;20244;-77
2022/05/31 04:18:50;;;;;;;3.47;2.25;;;19.80;97.20;;;;;;4208787;28;20266;-77
2022/05/31 04:20:59;;;;;;;3.78;2.20;;;19.80;97.20;;;;;;4207596;28;20218;-77
2022/05/31 04:25:21;;;;;;;2.72;1.85;;;19.80;97.10;;;;;;4207680;28;20214;-77
2022/05/31 04:27:23;;;;;;;2.95;2.03;;;19.80;97.10;;;;;;4208565;28;20966;-77
2022/05/31 04:29:26;;;;;;;3.80;2.38;;;19.80;97.30;;;;;;4209141;28;20247;-77
2022/05/31 04:31:28;;;;;;;2.30;2.00;;;19.80;97.50;;;;;;4208257;28;20618;-77
2022/05/31 04:33:30;;;;;;;2.42;2.05;;;19.80;97.50;;;;;;4207929;28;20222;-77
2022/05/31 04:35:33;;;;;;;2.25;2.05;;;19.80;97.40;;;;;;4208130;28;20230;-77
2022/05/31 04:37:37;;;;;;;2.90;2.30;;;19.70;97.60;;;;;;4207616;28;20226;-77
2022/05/31 04:39:39;;;;;;;3.00;2.30;;;19.70;97.40;;;;;;4209609;28;20222;-77
2022/05/31 04:41:43;;;;;;;3.95;2.45;;;19.70;97.30;;;;;;4208987;28;20215;-77
2022/05/31 04:43:45;;;;;;;2.97;2.10;;;19.70;97.40;;;;;;4208153;28;20275;-77
2022/05/31 04:45:47;;;;;;;2.97;2.00;;;19.80;97.30;;;;;;4208500;28;20287;-77
2022/05/31 04:47:50;;;;;;;3.17;2.35;;;19.80;97.40;;;;;;4209066;28;20324;-77
2022/05/31 04:49:52;;;;;;;2.22;1.90;;;19.70;97.30;;;;;;4207455;28;20219;-77
2022/05/31 04:51:54;;;;;;;5.25;2.50;;;19.80;97.30;;;;;;4208407;28;20244;-77
2022/05/31 04:53:58;;;;;;;2.53;2.20;;;19.70;97.30;;;;;;4206855;28;20214;-77
2022/05/31 04:56:02;;;;;;;2.28;2.00;;;19.70;97.50;;;;;;4206623;28;20210;-77
2022/05/31 04:58:04;;;;;;;3.30;1.95;;;19.70;97.40;;;;;;4207747;28;20271;-74
2022/05/31 05:00:08;;;;;;;3.28;1.98;;;19.70;97.30;;;;;;4207705;28;20256;-74
2022/05/31 05:02:10;;;;;;;3.20;2.30;;;19.70;97.40;;;;;;4207079;28;20223;-74
2022/05/31 05:04:13;;;;;;;3.35;2.25;;;19.70;97.40;;;;;;4207486;28;20230;-74
2022/05/31 05:06:17;;;;;;;3.38;2.40;;;19.80;97.40;;;;;;4205551;28;20295;-74
2022/05/31 05:08:20;;;;;;;3.35;2.13;;;19.80;97.40;;;;;;4206950;28;20248;-74
2022/05/31 05:10:23;;;;;;;3.42;2.00;;;19.80;97.40;;;;;;4207570;28;20371;-74
2022/05/31 05:12:26;;;;;;;3.08;2.22;;;19.80;97.50;;;;;;4206268;28;20214;-74
2022/05/31 05:14:30;;;;;;;3.40;2.25;;;19.80;97.30;;;;;;4206542;28;20218;-74
2022/05/31 05:16:33;;;;;;;2.70;2.25;;;19.80;97.50;;;;;;4207568;28;20206;-74
2022/05/31 05:18:35;;;;;;;2.47;2.10;;;19.80;97.70;;;;;;4206989;28;20264;-74
2022/05/31 05:20:39;;;;;;;3.42;2.05;;;19.80;97.30;;;;;;4207744;28;20219;-74
2022/05/31 05:22:41;;;;;;;3.15;2.17;;;19.80;97.40;;;;;;4206766;28;20238;-74
2022/05/31 05:24:44;;;;;;;3.13;2.17;;;19.80;97.60;;;;;;4208404;28;20218;-74
2022/05/31 05:26:47;;;;;;;3.80;2.10;;;19.80;97.70;;;;;;4210036;28;20326;-73
2022/05/31 05:31:20;;;;;;;3.95;2.38;;;19.80;97.50;;;;;;4210677;28;20198;-74
2022/05/31 05:33:22;;;;;;;4.63;2.28;;;19.80;97.60;;;;;;4210799;28;20214;-74
2022/05/31 05:35:24;;;;;;;2.78;2.20;;;19.90;97.40;;;;;;4211726;28;20618;-74
2022/05/31 05:37:27;;;;;;;2.78;2.00;;;19.90;97.40;;;;;;4211685;28;20214;-74
2022/05/31 05:39:29;;;;;;;3.17;2.15;;;19.90;97.70;;;;;;4210593;28;20276;-74
2022/05/31 05:41:32;;;;;;;3.08;2.05;;;19.80;97.40;;;;;;4210063;28;20218;-74
2022/05/31 05:43:35;;;;;;;2.10;1.90;;;19.90;97.60;;;;;;4211152;28;20268;-74
2022/05/31 05:45:38;;;;;;;3.65;2.20;;;19.80;97.50;;;;;;4208818;28;20242;-74
2022/05/31 05:47:40;;;;;;;2.58;2.22;;;19.80;97.50;;;;;;4210808;28;20708;-74
2022/05/31 05:49:43;;;;;;;3.42;2.03;;;19.90;97.40;;;;;;4211531;28;20218;-73
2022/05/31 05:51:46;;;;;;;2.78;1.85;;;19.90;97.30;;;;;;4207785;28;20222;-74
2022/05/31 05:53:48;;;;;;;3.92;2.00;;;19.90;97.40;;;;;;4211019;28;20207;-74
2022/05/31 05:55:51;;;;;;;4.45;2.30;;;19.90;97.30;;;;;;4211026;28;20264;-74
2022/05/31 05:57:54;;;;;;;3.53;2.58;;;19.90;97.70;;;;;;4210359;28;20279;-74
2022/05/31 05:59:58;;;;;;;2.55;1.80;;;19.90;97.40;;;;;;4211119;28;20276;-74
2022/05/31 06:02:04;;;;;;;2.53;2.17;;;19.90;97.50;;;;;;4209245;28;20218;-74
2022/05/31 06:04:13;;;;;;;2.70;2.00;;;19.90;97.50;;;;;;4207943;28;20279;-74
2022/05/31 06:06:17;;;;;;;5.05;2.42;;;19.90;97.50;;;;;;4208986;28;20279;-74
2022/05/31 06:08:23;;;;;;;5.38;2.20;;;19.90;97.50;;;;;;4209955;28;20214;-74
2022/05/31 06:10:29;;;;;;;3.17;2.00;;;19.90;97.60;;;;;;4211175;28;20210;-73
2022/05/31 06:12:37;;;;;;;2.30;1.83;;;19.90;97.50;;;;;;4210628;28;20218;-74
2022/05/31 06:14:43;;;;;;;3.05;2.05;;;19.90;97.50;;;;;;4209532;28;20218;-74
2022/05/31 06:16:52;;;;;;;3.63;2.40;;;19.90;97.70;;;;;;4210843;28;20206;-74
2022/05/31 06:19:00;;;;;;;3.85;2.33;;;20.00;97.60;;;;;;4209670;28;20210;-74
2022/05/31 06:21:06;;;;;;;2.63;2.20;;;19.90;97.80;;;;;;4209473;28;20627;-74
2022/05/31 06:23:08;;;;;;;2.78;2.00;;;20.00;97.50;;;;;;4210270;28;20222;-74
2022/05/31 06:25:14;;;;;;;3.17;2.10;;;19.90;97.70;;;;;;4209937;28;20264;-73
2022/05/31 06:27:16;;;;;;;3.65;2.35;;;19.90;97.30;;;;;;4209585;28;20226;-74
2022/05/31 06:29:19;;;;;;;2.78;2.10;;;20.00;97.80;;;;;;4209466;28;20214;-74
2022/05/31 06:31:21;;;;;;;3.20;2.30;;;20.00;97.50;;;;;;4208874;28;20210;-74
2022/05/31 06:33:25;;;;;;;2.72;2.03;;;20.00;97.70;;;;;;4209343;28;21102;-74
2022/05/31 06:35:27;;;;;;;3.38;2.20;;;19.90;97.70;;;;;;4209726;28;20275;-74
2022/05/31 06:37:30;;;;;;;4.30;2.10;;;20.00;97.90;;;;;;4207776;28;20218;-73
2022/05/31 06:39:34;;;;;;;3.03;2.30;;;20.00;97.90;;;;;;4209477;28;20750;-74
2022/05/31 06:41:37;;;;;;;2.63;2.22;;;20.00;97.60;;;;;;4208601;28;20675;-74
2022/05/31 06:43:39;;;;;;;4.40;2.35;;;20.00;97.70;;;;;;4209355;28;20268;-74
2022/05/31 06:45:41;;;;;;;3.53;1.90;;;20.00;97.70;;;;;;4208763;28;20359;-74
2022/05/31 06:47:44;;;;;;;2.47;1.90;;;20.00;97.80;;;;;;4208122;28;20243;-73
2022/05/31 06:49:47;;;;;;;3.53;2.13;;;20.00;97.80;;;;;;4209537;28;20271;-74
2022/05/31 06:58:48;;;;;;;4.50;3.35;;;20.10;97.70;;;;;;4208657;28;20198;-73
2022/05/31 07:00:53;;;;;;;10.65;4.53;;;20.00;96.70;;;;;;4202535;28;20263;-72
2022/05/31 07:02:56;;;;;;;9.63;5.20;;;19.50;97.10;;;;;;4209069;28;20222;-73
2022/05/31 07:04:59;;;;;;;8.18;5.15;;;19.10;97.00;;;;;;4205260;28;20213;-72
2022/05/31 07:07:01;;;;;;;9.48;5.32;;;18.80;97.10;;;;;;4206406;28;20230;-71
2022/05/31 07:09:04;;;;;;;16.92;5.85;;;18.80;97.20;;;;;;4209178;28;20272;-72
2022/05/31 07:11:08;;;;;;;11.32;5.97;;;18.80;97.40;;;;;;4204952;28;20370;-72
2022/05/31 07:13:10;;;;;;;14.20;6.45;;;18.80;97.30;;;;;;4206232;28;20256;-72
2022/05/31 07:15:13;;;;;;;16.15;5.63;;;18.80;97.10;;;;;;4207877;28;20752;-72
2022/05/31 07:17:15;;;;;;;13.40;6.15;;;18.80;96.70;;;;;;4209543;28;20222;-72
2022/05/31 07:19:17;;;;;;;15.88;6.35;;;18.80;96.20;;;;;;4207347;28;20214;-71
2022/05/31 07:21:21;;;;;;;14.80;6.35;;;18.90;96.10;;;;;;4205916;28;20210;-72
2022/05/31 07:23:23;;;;;;;15.02;5.93;;;18.90;96.10;;;;;;4207844;28;20218;-72
2022/05/31 07:25:26;;;;;;;11.15;5.75;;;18.90;95.90;;;;;;4208778;28;20210;-72
2022/05/31 07:27:28;;;;;;;10.80;5.60;;;19.00;95.60;;;;;;4209305;28;20690;-72
2022/05/31 07:29:30;;;;;;;10.38;5.47;;;19.10;95.50;;;;;;4209868;28;20218;-71
2022/05/31 07:31:35;;;;;;;10.38;4.80;;;19.00;95.30;;;;;;4205309;28;20244;-71
2022/05/31 07:33:37;;;;;;;10.57;3.97;;;19.10;95.20;;;;;;4205194;28;20210;-72
2022/05/31 07:35:41;;;;;;;10.85;4.40;;;19.10;95.20;;;;;;4207969;28;20215;-72
2022/05/31 07:37:45;;;;;;;8.95;4.30;;;19.10;95.60;;;;;;4204237;28;20218;-72
2022/05/31 07:39:48;;;;;;;8.68;4.60;;;19.10;95.40;;;;;;4206726;28;20612;-72
2022/05/31 07:41:52;;;;;;;7.10;4.45;;;19.10;95.30;;;;;;4205304;28;20218;-72
2022/05/31 07:43:54;;;;;;;12.23;4.88;;;19.20;95.20;;;;;;4203925;28;20214;-73
2022/05/31 07:46:05;;;;;;;8.57;4.05;;;19.20;95.20;;;;;;4198345;28;20222;-73
2022/05/31 07:48:08;;;;;;;12.10;4.93;;;19.30;95.20;;;;;;4198453;28;20355;-72
2022/05/31 07:50:11;;;;;;;9.73;5.03;;;19.30;95.20;;;;;;4204280;28;20733;-73
2022/05/31 07:52:13;;;;;;;8.38;4.35;;;19.20;95.10;;;;;;4207506;28;20264;-73
2022/05/31 07:54:17;;;;;;;9.07;4.18;;;19.20;95.00;;;;;;4203232;28;20279;-72
2022/05/31 07:56:21;;;;;;;7.40;4.05;;;19.10;94.90;;;;;;4203366;28;20296;-71
2022/05/31 07:58:31;;;;;;;10.00;3.60;;;19.20;94.70;;;;;;4206905;28;20627;-72
2022/05/31 08:00:33;;;;;;;9.70;3.30;;;19.20;94.70;;;;;;4206228;28;20205;-73
2022/05/31 08:02:36;;;;;;;6.20;3.50;;;19.30;94.60;;;;;;4206511;28;20352;-73
2022/05/31 08:04:38;;;;;;;8.30;3.35;;;19.40;94.40;;;;;;4203525;28;21682;-73
2022/05/31 08:06:41;;;;;;;4.93;3.13;;;19.50;94.30;;;;;;4201600;28;20238;-73
2022/05/31 08:08:44;;;;;;;7.18;3.42;;;19.40;94.50;;;;;;4207442;28;20568;-71
2022/05/31 08:10:48;;;;;;;6.97;3.22;;;19.40;94.30;;;;;;4207233;28;20271;-72
2022/05/31 08:12:50;;;;;;;8.82;3.05;;;19.40;94.20;;;;;;4202869;28;20215;-73
2022/05/31 08:14:53;;;;;;;5.45;2.78;;;19.40;94.40;;;;;;4204859;28;20655;-72
2022/05/31 08:16:55;;;;;;;7.20;3.20;;;19.40;94.20;;;;;;4200630;28;20252;-73
2022/05/31 08:18:58;;;;;;;5.82;2.88;;;19.50;94.10;;;;;;4204545;28;20271;-72
2022/05/31 08:21:00;;;;;;;5.43;3.03;;;19.50;94.10;;;;;;4206451;28;20226;-73
2022/05/31 08:23:03;;;;;;;6.80;3.00;;;19.60;93.90;;;;;;4208371;28;20663;-73
2022/05/31 08:25:06;;;;;;;6.25;2.72;;;19.60;93.90;;;;;;4200849;28;20263;-73
2022/05/31 08:27:10;;;;;;;8.05;2.90;;;19.60;93.90;;;;;;4202455;28;20300;-72
2022/05/31 08:29:12;;;;;;;6.53;2.92;;;19.50;93.50;;;;;;4206919;28;20272;-72
2022/05/31 08:31:18;;;;;;;4.47;2.75;;;19.50;93.60;;;;;;4201932;28;20247;-72
2022/05/31 08:33:20;;;;;;;6.60;2.50;;;19.50;93.60;;;;;;4207964;28;20218;-72
2022/05/31 08:35:23;;;;;;;7.93;2.97;;;19.70;93.50;;;;;;4202798;28;20223;-73
2022/05/31 08:37:25;;;;;;;8.88;2.63;;;19.80;93.50;;;;;;4199951;28;20215;-72
2022/05/31 08:39:28;;;;;;;6.88;2.50;;;19.90;93.60;;;;;;4202312;28;20271;-73
2022/05/31 08:41:32;;;;;;;6.20;2.40;;;20.00;93.70;;;;;;4200476;28;20222;-73
2022/05/31 08:43:53;;;;;;;5.65;2.35;;;20.00;93.90;;;;;;4205642;28;20263;-75
2022/05/31 08:46:03;;;;;;;9.38;2.15;;;20.00;93.80;;;;;;4201865;28;20222;-75
2022/05/31 08:48:11;;;;;;;4.63;2.22;;;20.20;93.70;;;;;;4196379;28;20694;-75
2022/05/31 08:52:57;;;;;;;5.63;2.20;;;20.30;93.20;;;;;;4206108;28;20206;-75
2022/05/31 08:57:33;;;;;;;6.18;2.58;;;20.30;93.20;;;;;;4202574;28;20202;-75
2022/05/31 08:59:42;;;;;;;4.32;1.63;;;20.40;93.30;;;;;;4199148;28;20206;-76
2022/05/31 09:01:51;;;;;;;8.25;2.20;;;20.40;93.40;;;;;;4203374;28;20213;-74
2022/05/31 09:03:57;;;;;;;6.88;2.50;;;20.40;93.20;;;;;;4208730;28;20218;-76
2022/05/31 09:06:06;;;;;;;4.63;2.00;;;20.40;93.20;;;;;;4208362;28;20242;-75
2022/05/31 09:08:19;;;;;;;6.47;2.00;;;20.50;93.40;;;;;;4208817;28;20284;-75
2022/05/31 09:10:30;;;;;;;3.75;1.88;;;20.60;93.60;;;;;;4209743;28;20259;-74
2022/05/31 09:12:45;;;;;;;5.47;1.88;;;20.70;93.80;;;;;;4206802;28;20222;-75
2022/05/31 09:14:54;;;;;;;3.90;1.90;;;20.70;93.90;;;;;;4207429;28;20222;-75
2022/05/31 09:17:03;;;;;;;6.22;1.83;;;20.80;94.00;;;;;;4208182;28;20209;-75
2022/05/31 09:19:08;;;;;;;4.50;1.77;;;20.80;94.00;;;;;;4205645;28;20218;-75
2022/05/31 09:21:25;;;;;;;3.50;1.80;;;20.80;94.10;;;;;;4203400;28;20580;-75
2022/05/31 09:23:31;;;;;;;4.55;1.95;;;20.80;94.20;;;;;;4205586;28;20638;-75
2022/05/31 09:25:38;;;;;;;4.63;1.95;;;20.90;94.30;;;;;;4200447;28;20226;-74
2022/05/31 09:27:44;;;;;;;4.82;1.90;;;20.90;94.50;;;;;;4204410;28;20291;-75
2022/05/31 09:30:01;;;;;;;6.80;1.88;;;20.90;94.30;;;;;;4197924;28;20268;-73
2022/05/31 09:32:12;;;;;;;3.80;1.80;;;20.80;94.70;;;;;;4206566;28;20928;-73
2022/05/31 09:34:41;;;;;;;3.53;1.88;;;20.90;94.40;;;;;;4204661;28;20214;-73
2022/05/31 09:36:48;;;;;;;4.18;1.90;;;20.90;95.00;;;;;;4201714;28;20272;-73
2022/05/31 09:39:20;;;;;;;6.50;2.00;;;21.00;94.60;;;;;;4207961;28;20252;-73
2022/05/31 09:41:27;;;;;;;9.68;2.30;;;20.90;94.70;;;;;;4207816;28;20283;-73
2022/05/31 09:43:36;;;;;;;7.45;1.88;;;20.80;95.20;;;;;;4208813;28;20551;-73
2022/05/31 09:45:52;;;;;;;5.70;2.08;;;20.90;95.10;;;;;;4201670;28;20214;-73
2022/05/31 09:47:55;;;;;;;6.18;1.90;;;20.90;95.10;;;;;;4206677;28;20323;-74
2022/05/31 09:49:58;;;;;;;11.50;2.45;;;21.00;95.00;;;;;;4205458;28;20226;-75
2022/05/31 09:52:02;;;;;;;4.95;1.88;;;21.10;95.00;;;;;;4210655;28;20222;-75
2022/05/31 09:59:05;;;;;;;3.65;1.85;;;21.20;95.10;;;;;;4208950;28;20182;-75
2022/05/31 10:01:24;;;;;;;3.63;1.75;;;21.20;95.00;;;;;;4193778;28;20617;-74
2022/05/31 10:03:34;;;;;;;4.40;1.92;;;21.20;95.10;;;;;;4207256;28;20260;-76
2022/05/31 10:05:37;;;;;;;4.65;2.05;;;21.20;95.50;;;;;;4205185;28;20284;-77
2022/05/31 10:07:40;;;;;;;4.32;2.00;;;21.30;95.70;;;;;;4212413;28;20218;-77
2022/05/31 10:09:44;;;;;;;4.38;1.95;;;21.30;95.70;;;;;;4204037;28;20264;-79
2022/05/31 10:11:49;;;;;;;4.28;2.10;;;21.30;95.60;;;;;;4210139;28;20215;-78
2022/05/31 10:13:57;;;;;;;5.45;1.95;;;21.40;95.90;;;;;;4209287;28;20214;-76
2022/05/31 10:16:12;;;;;;;3.55;1.80;;;21.30;95.50;;;;;;4210063;28;22003;-76
2022/05/31 10:18:26;;;;;;;3.03;1.77;;;21.30;95.20;;;;;;4207313;28;20242;-75
2022/05/31 10:20:29;;;;;;;4.68;2.22;;;21.30;95.30;;;;;;4208292;28;20274;-76
2022/05/31 10:22:31;;;;;;;4.05;2.28;;;21.30;95.30;;;;;;4208936;28;20214;-75
2022/05/31 10:24:33;;;;;;;2.35;1.77;;;21.40;95.30;;;;;;4206733;28;20261;-75
2022/05/31 10:26:41;;;;;;;4.55;2.00;;;21.40;95.30;;;;;;4211826;28;20261;-76
2022/05/31 10:28:53;;;;;;;4.47;2.10;;;21.40;95.60;;;;;;4204400;28;20706;-74
2022/05/31 10:31:03;;;;;;;4.30;2.15;;;21.40;95.30;;;;;;4205160;28;20267;-74
2022/05/31 10:33:10;;;;;;;7.03;2.10;;;21.40;95.30;;;;;;4205781;28;20683;-75
2022/05/31 10:35:16;;;;;;;2.75;1.88;;;21.30;95.90;;;;;;4207818;28;20264;-74
2022/05/31 10:37:28;;;;;;;5.60;2.60;;;21.40;95.60;;;;;;4201837;28;20279;-74
2022/05/31 10:39:34;;;;;;;6.15;1.92;;;21.30;94.30;;;;;;4207302;28;20206;-74
2022/05/31 10:41:38;;;;;;;5.20;1.90;;;21.30;91.90;;;;;;4207865;28;20644;-74
2022/05/31 10:43:43;;;;;;;6.13;2.83;;;21.30;93.80;;;;;;4205019;28;20275;-74
2022/05/31 10:45:46;;;;;;;3.00;2.30;;;21.30;94.70;;;;;;4204032;28;20241;-73
2022/05/31 10:47:54;;;;;;;4.95;2.10;;;21.00;94.20;;;;;;4206694;28;20604;-74
2022/05/31 10:49:58;;;;;;;6.45;2.20;;;21.10;94.60;;;;;;4203350;28;20252;-75
2022/05/31 10:52:13;;;;;;;3.42;2.00;;;21.30;94.70;;;;;;4203185;28;20214;-74
2022/05/31 10:54:38;;;;;;;4.32;2.28;;;21.30;94.80;;;;;;4211613;28;20222;-74
2022/05/31 10:56:47;;;;;;;3.17;1.80;;;21.30;95.00;;;;;;4205348;28;20210;-75
2022/05/31 10:58:57;;;;;;;7.10;2.20;;;21.40;95.50;;;;;;4208444;28;20248;-76
2022/05/31 11:01:10;;;;;;;7.53;2.28;;;21.40;95.30;;;;;;4208510;28;20255;-75
2022/05/31 11:03:21;;;;;;;4.90;2.30;;;21.40;95.40;;;;;;4209363;28;20667;-75
2022/05/31 11:05:33;;;;;;;3.83;2.17;;;21.50;95.40;;;;;;4207536;28;22077;-75
2022/05/31 11:11:27;;;;;;;8.75;2.20;;;21.50;95.40;;;;;;4227804;27;20221;-75
2022/05/31 11:13:12;;;;;;;3.10;2.15;;;21.50;95.40;;;;;;4222689;27;20205;-74